Time;durP1;ratioP1;P1;durP2;ratioP2;P2;SDS_P1;SDS_P2;PMS_P1;PMS_P2;Temp;Humidity;BMP_temperature;BMP_pressure;BME280_temperature;BME280_humidity;BME280_pressure;Samples;Min_cycle;Max_cycle;Signal;HPM_P1;HPM_P2
2023/06/18 00:00:11;;;;;;;29.85;23.55;;;;;;;;;;8397062;28;20110;-96
2023/06/18 00:04:14;;;;;;;31.00;23.85;;;;;;;;;;8396704;28;20484;-90
2023/06/18 00:08:17;;;;;;;31.60;24.02;;;;;;;;;;8394343;28;20056;-93
2023/06/18 00:12:19;;;;;;;34.67;25.90;;;;;;;;;;8392621;28;20076;-95
2023/06/18 00:16:26;;;;;;;31.83;24.08;;;;;;;;;;8397603;28;20112;-96
2023/06/18 00:20:29;;;;;;;33.15;24.67;;;;;;;;;;8397539;28;20472;-95
2023/06/18 00:24:32;;;;;;;33.35;25.38;;;;;;;;;;8385640;28;20496;-87
2023/06/18 00:28:35;;;;;;;30.55;24.13;;;;;;;;;;8386286;28;20537;-94
2023/06/18 00:32:43;;;;;;;32.83;25.48;;;;;;;;;;8388972;28;20130;-88
2023/06/18 00:36:50;;;;;;;33.63;25.52;;;;;;;;;;8403282;28;20091;-94
2023/06/18 00:40:53;;;;;;;36.97;25.73;;;;;;;;;;8405866;28;20528;-91
2023/06/18 00:44:57;;;;;;;34.15;25.63;;;;;;;;;;8376101;28;20489;-89
2023/06/18 00:49:02;;;;;;;33.47;24.83;;;;;;;;;;8369268;28;20182;-87
2023/06/18 00:53:05;;;;;;;32.97;25.55;;;;;;;;;;8396468;28;20056;-87
2023/06/18 00:57:09;;;;;;;33.10;25.75;;;;;;;;;;8396460;28;20062;-92
2023/06/18 01:01:12;;;;;;;38.55;28.02;;;;;;;;;;8396257;28;20056;-94
2023/06/18 01:05:17;;;;;;;36.15;26.75;;;;;;;;;;8415980;28;20067;-89
2023/06/18 01:09:21;;;;;;;34.72;25.48;;;;;;;;;;8395337;28;20135;-88
2023/06/18 01:13:25;;;;;;;35.55;24.40;;;;;;;;;;8401208;28;20465;-94
2023/06/18 01:17:33;;;;;;;31.63;24.10;;;;;;;;;;8416116;28;20049;-96
2023/06/18 01:21:39;;;;;;;34.08;24.70;;;;;;;;;;8402946;28;20055;-88
2023/06/18 01:25:44;;;;;;;34.60;23.25;;;;;;;;;;8403020;28;20125;-89
2023/06/18 01:29:47;;;;;;;29.50;22.13;;;;;;;;;;8412588;28;20140;-95
2023/06/18 01:33:53;;;;;;;32.33;23.17;;;;;;;;;;8402108;28;20052;-88
2023/06/18 01:38:16;;;;;;;33.58;24.75;;;;;;;;;;8402193;28;20049;-87
2023/06/18 01:42:22;;;;;;;32.08;24.25;;;;;;;;;;8401947;28;20179;-95
2023/06/18 01:46:29;;;;;;;34.00;24.20;;;;;;;;;;8416943;28;20152;-91
2023/06/18 01:50:35;;;;;;;32.67;24.30;;;;;;;;;;8413489;28;20407;-87
2023/06/18 01:54:41;;;;;;;34.75;24.60;;;;;;;;;;8393699;28;20063;-87
2023/06/18 01:58:44;;;;;;;33.35;24.60;;;;;;;;;;8401518;28;20459;-94
2023/06/18 02:02:47;;;;;;;34.60;24.73;;;;;;;;;;8393713;28;20053;-89
2023/06/18 02:06:50;;;;;;;30.02;22.33;;;;;;;;;;8401172;28;20098;-89
2023/06/18 02:10:55;;;;;;;33.13;24.05;;;;;;;;;;8401152;28;20056;-92
2023/06/18 02:14:57;;;;;;;36.60;25.17;;;;;;;;;;8394381;28;20057;-95
2023/06/18 02:19:00;;;;;;;33.35;24.33;;;;;;;;;;8400992;28;20123;-89
2023/06/18 02:23:03;;;;;;;31.65;23.38;;;;;;;;;;8399542;28;20637;-94
2023/06/18 02:27:07;;;;;;;33.42;24.58;;;;;;;;;;8400405;28;20056;-87
2023/06/18 02:31:10;;;;;;;30.73;23.70;;;;;;;;;;8400588;28;20196;-90
2023/06/18 02:35:13;;;;;;;31.98;24.67;;;;;;;;;;8397513;28;20056;-92
2023/06/18 02:39:16;;;;;;;34.63;24.38;;;;;;;;;;8396531;28;20076;-96
2023/06/18 02:43:21;;;;;;;31.15;23.83;;;;;;;;;;8400412;28;20458;-94
2023/06/18 02:47:23;;;;;;;30.85;23.08;;;;;;;;;;8394668;28;20066;-87
2023/06/18 02:51:26;;;;;;;32.45;24.10;;;;;;;;;;8387631;28;20519;-95
2023/06/18 02:55:31;;;;;;;31.35;23.10;;;;;;;;;;8389565;28;20052;-93
2023/06/18 02:59:35;;;;;;;30.70;23.33;;;;;;;;;;8396619;28;20053;-92
2023/06/18 03:03:38;;;;;;;30.83;22.83;;;;;;;;;;8389837;28;20063;-95
2023/06/18 03:07:41;;;;;;;30.17;22.55;;;;;;;;;;8399229;28;20052;-96
2023/06/18 03:11:44;;;;;;;30.42;23.83;;;;;;;;;;8399330;28;20057;-87
2023/06/18 03:15:48;;;;;;;30.20;22.95;;;;;;;;;;8395967;28;20062;-93
2023/06/18 03:19:51;;;;;;;27.02;21.88;;;;;;;;;;8398847;28;20052;-95
2023/06/18 03:23:54;;;;;;;30.80;22.33;;;;;;;;;;8412289;28;20056;-87
2023/06/18 03:27:57;;;;;;;28.88;22.77;;;;;;;;;;8397983;28;20056;-94
2023/06/18 03:32:01;;;;;;;28.13;22.48;;;;;;;;;;8398246;28;20469;-88
2023/06/18 03:36:05;;;;;;;30.00;23.63;;;;;;;;;;8392218;28;20063;-90
2023/06/18 03:40:10;;;;;;;28.58;23.23;;;;;;;;;;8395924;28;20048;-95
2023/06/18 03:44:13;;;;;;;23.75;19.20;;;;;;;;;;8391526;28;20098;-90
2023/06/18 03:48:17;;;;;;;24.70;20.30;;;;;;;;;;8397611;28;20143;-90
2023/06/18 03:52:20;;;;;;;24.05;20.05;;;;;;;;;;8397348;28;20132;-88
2023/06/18 03:56:23;;;;;;;24.33;19.58;;;;;;;;;;8392687;28;20141;-94
2023/06/18 04:00:26;;;;;;;22.73;19.08;;;;;;;;;;8393698;28;20496;-88
2023/06/18 04:04:30;;;;;;;24.73;18.52;;;;;;;;;;8397539;28;20478;-95
2023/06/18 04:08:34;;;;;;;20.83;17.98;;;;;;;;;;8396230;28;20059;-90
2023/06/18 04:12:37;;;;;;;21.92;18.60;;;;;;;;;;8394045;28;20050;-95
2023/06/18 04:16:40;;;;;;;22.38;17.95;;;;;;;;;;8392099;28;20078;-88
2023/06/18 04:20:45;;;;;;;23.42;17.20;;;;;;;;;;8397288;28;20061;-96
2023/06/18 04:24:48;;;;;;;22.13;17.58;;;;;;;;;;8397157;28;20048;-91
2023/06/18 04:28:51;;;;;;;20.55;17.55;;;;;;;;;;8403295;28;20117;-94
2023/06/18 04:32:55;;;;;;;21.15;17.25;;;;;;;;;;8392500;28;20052;-92
2023/06/18 04:36:59;;;;;;;22.33;16.13;;;;;;;;;;8394051;28;20771;-92
2023/06/18 04:41:02;;;;;;;20.90;16.17;;;;;;;;;;8395597;28;20057;-87
2023/06/18 04:45:06;;;;;;;20.90;15.25;;;;;;;;;;8395758;28;20133;-95
2023/06/18 04:49:09;;;;;;;20.63;13.98;;;;;;;;;;8391832;28;20098;-90
2023/06/18 04:53:13;;;;;;;15.82;13.25;;;;;;;;;;8396936;28;20515;-96
2023/06/18 04:57:17;;;;;;;15.55;12.85;;;;;;;;;;8397046;28;20068;-96
2023/06/18 05:01:21;;;;;;;16.27;13.55;;;;;;;;;;8395170;28;20060;-90
2023/06/18 05:05:23;;;;;;;19.67;15.00;;;;;;;;;;8390223;28;20064;-95
2023/06/18 05:09:30;;;;;;;14.73;12.38;;;;;;;;;;8396404;28;20503;-91
2023/06/18 05:13:33;;;;;;;17.08;12.68;;;;;;;;;;8396016;28;20500;-85
2023/06/18 05:17:36;;;;;;;17.10;12.23;;;;;;;;;;8395247;28;20495;-94
2023/06/18 05:21:39;;;;;;;15.43;11.73;;;;;;;;;;8389838;28;20458;-91
2023/06/18 05:25:44;;;;;;;14.40;11.43;;;;;;;;;;8385109;28;20137;-88
2023/06/18 05:29:47;;;;;;;15.23;12.15;;;;;;;;;;8392038;28;20084;-95
2023/06/18 05:33:50;;;;;;;15.45;11.80;;;;;;;;;;8396046;28;20083;-86
2023/06/18 05:37:53;;;;;;;14.18;11.52;;;;;;;;;;8395335;28;20140;-89
2023/06/18 05:41:57;;;;;;;12.02;10.73;;;;;;;;;;8391316;28;20060;-92
2023/06/18 05:46:00;;;;;;;16.00;12.48;;;;;;;;;;8394994;28;20124;-93
2023/06/18 05:50:03;;;;;;;14.82;11.40;;;;;;;;;;8396138;28;20488;-89
2023/06/18 05:54:07;;;;;;;13.88;11.48;;;;;;;;;;8378466;28;20497;-89
2023/06/18 05:58:11;;;;;;;15.85;12.10;;;;;;;;;;8385107;28;20082;-92
2023/06/18 06:02:14;;;;;;;19.13;12.07;;;;;;;;;;8406048;28;20514;-88
2023/06/18 06:06:17;;;;;;;15.63;11.88;;;;;;;;;;8402170;28;20515;-89
2023/06/18 06:10:21;;;;;;;12.45;10.30;;;;;;;;;;8402637;28;20488;-89
2023/06/18 06:14:25;;;;;;;14.20;11.05;;;;;;;;;;8400894;28;20056;-96
2023/06/18 06:18:29;;;;;;;13.25;11.23;;;;;;;;;;8406707;28;20052;-88
2023/06/18 06:22:32;;;;;;;12.57;10.57;;;;;;;;;;8406850;28;20052;-92
2023/06/18 06:26:34;;;;;;;13.27;11.80;;;;;;;;;;8388726;28;20078;-92
2023/06/18 06:30:39;;;;;;;14.43;11.25;;;;;;;;;;8411078;28;20098;-91
2023/06/18 06:34:42;;;;;;;12.52;10.57;;;;;;;;;;8408991;28;20045;-92
2023/06/18 06:38:45;;;;;;;14.93;10.32;;;;;;;;;;8411432;28;20079;-93
2023/06/18 06:42:48;;;;;;;13.50;9.88;;;;;;;;;;8405953;28;20072;-89
2023/06/18 06:46:52;;;;;;;13.32;9.82;;;;;;;;;;8401186;28;20067;-95
2023/06/18 06:50:55;;;;;;;10.73;9.52;;;;;;;;;;8402112;28;20052;-89
2023/06/18 06:54:58;;;;;;;9.80;8.80;;;;;;;;;;8408402;28;20052;-96
2023/06/18 06:59:02;;;;;;;16.17;9.25;;;;;;;;;;8401459;28;20048;-94
2023/06/18 07:03:08;;;;;;;10.90;8.25;;;;;;;;;;8385171;28;20052;-94
2023/06/18 07:07:12;;;;;;;9.00;7.25;;;;;;;;;;8404874;28;20523;-89
2023/06/18 07:11:16;;;;;;;10.80;7.50;;;;;;;;;;8413863;28;20098;-94
2023/06/18 07:15:34;;;;;;;10.40;7.60;;;;;;;;;;8404671;28;20056;-93
2023/06/18 07:19:40;;;;;;;9.88;7.32;;;;;;;;;;8389229;28;20492;-96
2023/06/18 07:23:43;;;;;;;9.15;7.10;;;;;;;;;;8401886;28;20063;-88
2023/06/18 07:27:45;;;;;;;7.72;6.35;;;;;;;;;;8391052;28;20131;-94
2023/06/18 07:31:48;;;;;;;8.25;6.40;;;;;;;;;;8387432;28;20156;-93
2023/06/18 07:35:53;;;;;;;7.63;6.72;;;;;;;;;;8385176;28;20052;-89
2023/06/18 07:39:57;;;;;;;7.90;6.78;;;;;;;;;;8398003;28;20116;-92
2023/06/18 07:44:00;;;;;;;8.43;6.80;;;;;;;;;;8407459;28;20451;-94
2023/06/18 07:48:04;;;;;;;7.78;6.80;;;;;;;;;;8402056;28;20075;-88
2023/06/18 07:52:09;;;;;;;8.50;6.95;;;;;;;;;;8397553;28;20060;-93
2023/06/18 07:56:13;;;;;;;8.68;7.28;;;;;;;;;;8414669;28;20049;-87
2023/06/18 08:00:34;;;;;;;10.75;6.55;;;;;;;;;;8409749;28;20052;-89
2023/06/18 08:04:46;;;;;;;7.72;6.80;;;;;;;;;;8395056;28;20053;-89
2023/06/18 08:09:12;;;;;;;9.32;6.97;;;;;;;;;;8355070;28;20045;-87
2023/06/18 08:13:21;;;;;;;10.50;6.65;;;;;;;;;;8392175;28;20060;-88
2023/06/18 08:17:32;;;;;;;7.50;6.20;;;;;;;;;;8422130;28;20084;-88
2023/06/18 08:22:00;;;;;;;8.43;6.25;;;;;;;;;;8407758;28;20056;-87
2023/06/18 08:26:22;;;;;;;6.97;6.27;;;;;;;;;;8396872;28;20068;-87
2023/06/18 08:30:47;;;;;;;8.07;6.25;;;;;;;;;;8394002;28;20056;-87
2023/06/18 08:34:52;;;;;;;7.18;5.57;;;;;;;;;;8395347;28;20096;-87
2023/06/18 08:39:27;;;;;;;6.50;5.80;;;;;;;;;;8401823;28;20048;-86
2023/06/18 08:43:45;;;;;;;5.95;4.90;;;;;;;;;;8349111;28;20061;-87
2023/06/18 08:48:13;;;;;;;7.80;5.32;;;;;;;;;;8356312;28;20121;-88
2023/06/18 08:52:33;;;;;;;5.75;4.60;;;;;;;;;;8390492;28;20044;-88
2023/06/18 08:57:03;;;;;;;6.40;4.65;;;;;;;;;;8383071;28;20173;-86
2023/06/18 09:01:44;;;;;;;5.60;4.77;;;;;;;;;;8411393;28;20067;-87
2023/06/18 09:06:26;;;;;;;6.25;5.00;;;;;;;;;;8341501;28;20127;-87
2023/06/18 09:16:09;;;;;;;5.95;4.88;;;;;;;;;;8209574;29;20527;-87
2023/06/18 09:20:43;;;;;;;8.27;5.30;;;;;;;;;;8211504;28;20063;-87
2023/06/18 09:29:58;;;;;;;5.68;4.75;;;;;;;;;;8173472;29;20059;-87
2023/06/18 09:34:20;;;;;;;6.43;4.65;;;;;;;;;;8205166;28;20071;-86
2023/06/18 09:43:24;;;;;;;6.78;5.15;;;;;;;;;;8410767;28;20056;-86
2023/06/18 09:47:35;;;;;;;8.90;4.72;;;;;;;;;;8431817;28;20053;-87
2023/06/18 09:51:46;;;;;;;5.53;4.70;;;;;;;;;;8378051;28;20052;-86
2023/06/18 09:56:16;;;;;;;8.25;5.10;;;;;;;;;;8412899;28;20036;-87
2023/06/18 10:00:25;;;;;;;7.78;5.35;;;;;;;;;;8407900;28;20041;-87
2023/06/18 10:04:51;;;;;;;8.25;5.40;;;;;;;;;;8366815;28;20051;-87
2023/06/18 10:08:58;;;;;;;6.90;5.60;;;;;;;;;;8356073;28;20098;-88
2023/06/18 10:13:12;;;;;;;7.38;5.75;;;;;;;;;;8404275;28;20056;-86
2023/06/18 10:17:33;;;;;;;6.93;5.32;;;;;;;;;;8406410;28;20071;-87
2023/06/18 10:21:52;;;;;;;6.20;4.70;;;;;;;;;;8406599;28;20052;-87
2023/06/18 10:26:19;;;;;;;5.90;4.85;;;;;;;;;;8426583;28;20369;-86
2023/06/18 10:30:28;;;;;;;;;;;;;;;;;;8407135;28;20056;-87
2023/06/18 10:34:47;;;;;;;6.45;5.07;;;;;;;;;;8404018;28;20352;-87
2023/06/18 10:38:52;;;;;;;6.93;4.85;;;;;;;;;;8401155;28;20049;-87
2023/06/18 10:43:18;;;;;;;6.80;5.05;;;;;;;;;;8403534;28;20063;-87
2023/06/18 10:47:31;;;;;;;7.05;4.90;;;;;;;;;;8411302;28;20057;-86
2023/06/18 10:51:41;;;;;;;5.90;4.65;;;;;;;;;;8398109;28;20052;-86
2023/06/18 11:05:53;;;;;;;6.43;4.90;;;;;;;;;;8372007;28;20063;-86
2023/06/18 11:10:02;;;;;;;5.68;4.40;;;;;;;;;;8373285;28;20057;-86
2023/06/18 11:14:24;;;;;;;;;;;;;;;;;;8376026;28;20139;-86
2023/06/18 11:23:17;;;;;;;8.48;4.72;;;;;;;;;;8378492;28;20045;-87
2023/06/18 11:27:45;;;;;;;6.38;4.80;;;;;;;;;;8354622;28;20052;-86
2023/06/18 11:31:54;;;;;;;6.40;4.77;;;;;;;;;;8384885;28;20342;-86
2023/06/18 11:36:31;;;;;;;14.95;8.32;;;;;;;;;;8389722;28;20394;-86
2023/06/18 11:40:57;;;;;;;6.97;4.60;;;;;;;;;;8377573;28;20063;-86
2023/06/18 11:45:04;;;;;;;5.72;4.10;;;;;;;;;;8350374;28;20060;-85
2023/06/18 11:49:15;;;;;;;5.43;4.15;;;;;;;;;;8380373;28;20103;-86
2023/06/18 11:53:19;;;;;;;8.40;6.53;;;;;;;;;;8370597;28;20080;-86
2023/06/18 11:57:28;;;;;;;5.70;4.35;;;;;;;;;;8405947;28;20083;-86
2023/06/18 12:01:37;;;;;;;4.90;3.95;;;;;;;;;;8408809;28;20059;-88
2023/06/18 12:05:41;;;;;;;5.32;3.65;;;;;;;;;;8437143;28;20048;-95
2023/06/18 12:09:55;;;;;;;5.50;4.40;;;;;;;;;;8409571;28;20073;-88
2023/06/18 12:14:10;;;;;;;5.78;4.75;;;;;;;;;;8379105;28;20131;-87
2023/06/18 12:18:34;;;;;;;5.22;4.07;;;;;;;;;;8382973;28;20057;-87
2023/06/18 12:22:45;;;;;;;4.82;3.88;;;;;;;;;;8390482;28;20062;-88
2023/06/18 12:26:54;;;;;;;6.25;3.78;;;;;;;;;;8391961;28;20049;-87
2023/06/18 12:31:14;;;;;;;6.85;3.70;;;;;;;;;;8394025;28;20095;-86
2023/06/18 12:35:22;;;;;;;4.88;3.63;;;;;;;;;;8391884;28;20108;-87
2023/06/18 12:39:27;;;;;;;5.72;3.90;;;;;;;;;;8352249;28;20181;-87
2023/06/18 12:43:48;;;;;;;6.22;4.05;;;;;;;;;;8391533;28;20099;-86
2023/06/18 12:48:13;;;;;;;5.30;3.58;;;;;;;;;;8378579;28;20455;-88
2023/06/18 12:52:19;;;;;;;5.32;3.72;;;;;;;;;;8392935;28;20057;-87
2023/06/18 12:56:29;;;;;;;12.98;6.90;;;;;;;;;;8408650;28;20059;-90
2023/06/18 13:00:38;;;;;;;4.07;3.22;;;;;;;;;;8437376;28;20052;-92
2023/06/18 13:04:45;;;;;;;6.25;3.53;;;;;;;;;;8406728;28;20049;-92
2023/06/18 13:09:02;;;;;;;5.35;3.70;;;;;;;;;;8401706;28;20055;-89
2023/06/18 13:13:05;;;;;;;5.18;3.88;;;;;;;;;;8401806;28;20057;-89
2023/06/18 13:17:10;;;;;;;5.13;3.72;;;;;;;;;;8366770;28;20095;-92
2023/06/18 13:21:15;;;;;;;6.03;3.92;;;;;;;;;;8397013;28;20488;-93
2023/06/18 13:25:22;;;;;;;5.68;4.13;;;;;;;;;;8411443;28;20045;-90
2023/06/18 13:29:30;;;;;;;6.28;4.00;;;;;;;;;;8402303;28;20041;-89
2023/06/18 13:33:36;;;;;;;5.05;3.92;;;;;;;;;;8381499;28;20060;-95
2023/06/18 13:37:42;;;;;;;5.63;3.92;;;;;;;;;;8404881;28;20083;-91
2023/06/18 13:41:50;;;;;;;6.18;4.40;;;;;;;;;;8399198;28;20052;-89
2023/06/18 13:45:57;;;;;;;21.45;5.18;;;;;;;;;;8397510;28;20420;-91
2023/06/18 13:50:02;;;;;;;10.13;5.22;;;;;;;;;;8389538;28;20056;-91
2023/06/18 13:54:07;;;;;;;8.57;4.88;;;;;;;;;;8388425;28;20520;-87
2023/06/18 13:58:10;;;;;;;7.10;4.65;;;;;;;;;;8409995;28;20068;-88
2023/06/18 14:02:23;;;;;;;7.70;4.90;;;;;;;;;;8405845;28;20049;-95
2023/06/18 14:06:27;;;;;;;6.38;4.93;;;;;;;;;;8391962;28;20057;-87
2023/06/18 14:10:33;;;;;;;5.63;3.70;;;;;;;;;;8400359;28;20060;-88
2023/06/18 14:14:44;;;;;;;6.60;3.95;;;;;;;;;;8382160;28;20061;-89
2023/06/18 14:18:54;;;;;;;5.88;3.78;;;;;;;;;;8400364;28;20427;-88
2023/06/18 14:23:02;;;;;;;5.25;3.50;;;;;;;;;;8403815;28;20069;-89
2023/06/18 14:27:12;;;;;;;6.07;3.92;;;;;;;;;;8400621;28;20063;-89
2023/06/18 14:31:17;;;;;;;4.65;3.53;;;;;;;;;;8390152;28;20059;-89
2023/06/18 14:35:24;;;;;;;4.93;3.78;;;;;;;;;;8390449;28;20126;-88
2023/06/18 14:39:28;;;;;;;7.30;4.00;;;;;;;;;;8388264;28;20111;-89
2023/06/18 14:43:38;;;;;;;5.97;4.00;;;;;;;;;;8388262;28;20463;-89
2023/06/18 14:47:41;;;;;;;8.20;4.80;;;;;;;;;;8395135;28;20166;-89
2023/06/18 14:51:46;;;;;;;10.48;5.10;;;;;;;;;;8392991;28;20049;-89
2023/06/18 14:55:50;;;;;;;8.07;4.90;;;;;;;;;;8401935;28;20054;-90
2023/06/18 14:59:57;;;;;;;6.03;4.55;;;;;;;;;;8397165;28;20056;-90
2023/06/18 15:04:03;;;;;;;7.65;4.53;;;;;;;;;;8401962;28;20049;-89
2023/06/18 15:08:06;;;;;;;8.10;4.80;;;;;;;;;;8395091;28;20149;-88
2023/06/18 15:12:11;;;;;;;7.32;4.57;;;;;;;;;;8408283;28;20056;-88
2023/06/18 15:16:17;;;;;;;5.93;3.40;;;;;;;;;;8399625;28;20894;-88
2023/06/18 15:25:12;;;;;;;;;;;;;;;;;;8394637;28;20067;-89
2023/06/18 15:29:18;;;;;;;8.88;4.10;;;;;;;;;;8396893;28;19921;-89
2023/06/18 15:33:27;;;;;;;7.93;4.97;;;;;;;;;;8385551;28;20059;-89
2023/06/18 15:37:36;;;;;;;7.60;4.47;;;;;;;;;;8387399;28;20057;-90
2023/06/18 15:41:42;;;;;;;8.18;5.05;;;;;;;;;;8394235;28;20436;-89
2023/06/18 15:45:45;;;;;;;8.23;5.32;;;;;;;;;;8380565;28;20060;-89
2023/06/18 15:49:49;;;;;;;7.88;4.90;;;;;;;;;;8396423;28;20052;-87
2023/06/18 15:53:54;;;;;;;5.93;4.80;;;;;;;;;;8396876;28;20056;-90
2023/06/18 15:57:57;;;;;;;5.70;4.93;;;;;;;;;;8387383;28;20055;-89
2023/06/18 16:02:01;;;;;;;6.25;4.80;;;;;;;;;;8399448;28;20121;-89
2023/06/18 16:06:06;;;;;;;7.18;5.15;;;;;;;;;;8387041;28;20044;-89
2023/06/18 16:10:10;;;;;;;7.72;5.07;;;;;;;;;;8399411;28;20298;-89
2023/06/18 16:14:13;;;;;;;7.25;4.47;;;;;;;;;;8399467;28;20083;-89
2023/06/18 16:18:17;;;;;;;6.43;4.22;;;;;;;;;;8399121;28;20132;-87
2023/06/18 16:22:22;;;;;;;5.68;4.50;;;;;;;;;;8398565;28;20057;-88
2023/06/18 16:26:28;;;;;;;8.68;5.35;;;;;;;;;;8400492;28;20087;-88
2023/06/18 16:30:31;;;;;;;6.75;4.63;;;;;;;;;;8399293;28;20444;-87
2023/06/18 16:34:34;;;;;;;8.13;5.03;;;;;;;;;;8400693;28;20489;-87
2023/06/18 16:38:38;;;;;;;7.47;4.80;;;;;;;;;;8399139;28;20116;-87
2023/06/18 16:42:42;;;;;;;7.72;4.88;;;;;;;;;;8398584;28;20068;-87
2023/06/18 16:46:44;;;;;;;4.63;3.78;;;;;;;;;;8398674;28;20071;-87
2023/06/18 16:50:47;;;;;;;7.40;5.05;;;;;;;;;;8395472;28;20135;-87
2023/06/18 16:54:51;;;;;;;14.02;5.72;;;;;;;;;;8396669;28;20586;-87
2023/06/18 16:58:55;;;;;;;5.82;4.68;;;;;;;;;;8399893;28;20049;-89
2023/06/18 17:03:07;;;;;;;7.13;5.20;;;;;;;;;;8398859;28;20064;-87
2023/06/18 17:07:18;;;;;;;6.15;4.43;;;;;;;;;;8408248;28;20083;-89
2023/06/18 17:11:24;;;;;;;6.10;4.70;;;;;;;;;;8392859;28;20101;-88
2023/06/18 17:15:28;;;;;;;6.63;4.72;;;;;;;;;;8392234;28;20056;-89
2023/06/18 17:19:33;;;;;;;6.55;4.97;;;;;;;;;;8397801;28;20052;-88
2023/06/18 17:23:40;;;;;;;6.50;5.28;;;;;;;;;;8397115;28;20071;-89
2023/06/18 17:27:48;;;;;;;6.35;5.10;;;;;;;;;;8407702;28;20067;-89
2023/06/18 17:32:04;;;;;;;6.28;5.10;;;;;;;;;;8397407;28;20053;-88
2023/06/18 17:36:37;;;;;;;6.20;5.00;;;;;;;;;;8404710;28;20049;-89
2023/06/18 17:40:52;;;;;;;7.95;5.38;;;;;;;;;;8395542;28;20063;-89
2023/06/18 17:45:00;;;;;;;6.65;5.50;;;;;;;;;;8381467;28;20075;-89
2023/06/18 17:49:14;;;;;;;9.20;5.68;;;;;;;;;;8380616;28;20105;-89
2023/06/18 17:57:48;;;;;;;7.32;5.38;;;;;;;;;;8377149;28;20064;-89
2023/06/18 18:01:54;;;;;;;10.18;5.72;;;;;;;;;;8382465;28;20057;-89
2023/06/18 18:05:58;;;;;;;6.18;5.00;;;;;;;;;;8359631;28;20107;-89
2023/06/18 18:10:02;;;;;;;7.88;5.90;;;;;;;;;;8373109;28;20413;-90
2023/06/18 18:14:10;;;;;;;6.68;5.25;;;;;;;;;;8372680;28;20124;-90
2023/06/18 18:18:17;;;;;;;7.32;5.53;;;;;;;;;;8364836;28;20108;-87
2023/06/18 18:22:22;;;;;;;6.60;5.20;;;;;;;;;;8366311;28;20061;-90
2023/06/18 18:26:26;;;;;;;6.65;5.38;;;;;;;;;;8359978;28;20143;-88
2023/06/18 18:30:29;;;;;;;12.90;8.73;;;;;;;;;;8360641;28;20065;-88
2023/06/18 18:34:37;;;;;;;8.00;7.20;;;;;;;;;;8357295;28;20061;-88
2023/06/18 18:38:44;;;;;;;8.52;5.90;;;;;;;;;;8354220;28;20053;-88
2023/06/18 18:42:52;;;;;;;9.60;6.50;;;;;;;;;;8361880;28;20104;-88
2023/06/18 18:47:01;;;;;;;7.90;5.75;;;;;;;;;;8354540;28;20076;-88
2023/06/18 18:51:08;;;;;;;7.95;5.72;;;;;;;;;;8340524;28;20113;-89
2023/06/18 18:55:14;;;;;;;12.85;7.32;;;;;;;;;;8361085;28;20052;-89
2023/06/18 18:59:19;;;;;;;8.45;6.10;;;;;;;;;;8390490;28;20139;-90
2023/06/18 19:03:42;;;;;;;8.70;5.85;;;;;;;;;;8390982;28;20053;-90
2023/06/18 19:07:57;;;;;;;9.00;6.57;;;;;;;;;;8401422;28;20045;-89
2023/06/18 19:12:06;;;;;;;10.02;8.02;;;;;;;;;;8351698;28;20052;-91
2023/06/18 19:16:14;;;;;;;11.45;8.85;;;;;;;;;;8369848;28;20082;-91
2023/06/18 19:20:19;;;;;;;10.82;9.05;;;;;;;;;;8395388;28;20532;-91
2023/06/18 19:24:41;;;;;;;16.52;10.15;;;;;;;;;;8405435;28;20084;-92
2023/06/18 19:28:55;;;;;;;12.35;9.15;;;;;;;;;;8320998;28;20043;-89
2023/06/18 19:33:02;;;;;;;60.13;40.90;;;;;;;;;;8309183;28;20611;-88
2023/06/18 19:37:14;;;;;;;41.63;18.10;;;;;;;;;;8338639;28;20053;-89
2023/06/18 19:41:25;;;;;;;10.07;7.50;;;;;;;;;;8341524;28;20054;-87
2023/06/18 19:45:34;;;;;;;10.18;7.10;;;;;;;;;;8345954;28;20056;-88
2023/06/18 19:49:41;;;;;;;10.88;7.68;;;;;;;;;;8334566;28;20132;-87
2023/06/18 19:53:50;;;;;;;13.00;9.52;;;;;;;;;;8338341;28;20049;-87
2023/06/18 19:58:35;;;;;;;12.90;9.18;;;;;;;;;;8331639;28;20050;-87
2023/06/18 20:02:42;;;;;;;12.40;8.55;;;;;;;;;;8315707;28;20073;-88
2023/06/18 20:06:46;;;;;;;11.88;8.15;;;;;;;;;;8371330;28;20043;-87
2023/06/18 20:10:50;;;;;;;12.77;8.38;;;;;;;;;;8400694;28;20067;-88
2023/06/18 20:14:57;;;;;;;12.38;8.63;;;;;;;;;;8401146;28;20049;-87
2023/06/18 20:19:07;;;;;;;10.90;8.52;;;;;;;;;;8400616;28;20096;-87
2023/06/18 20:23:12;;;;;;;15.95;9.07;;;;;;;;;;8400940;28;20052;-88
2023/06/18 20:27:16;;;;;;;14.05;9.60;;;;;;;;;;8400419;28;20045;-90
2023/06/18 20:31:22;;;;;;;15.70;10.50;;;;;;;;;;8382617;28;20052;-90
2023/06/18 20:35:26;;;;;;;18.58;10.68;;;;;;;;;;8400173;28;20118;-90
2023/06/18 20:39:30;;;;;;;13.90;10.40;;;;;;;;;;8400055;28;20094;-90
2023/06/18 20:43:35;;;;;;;14.98;11.00;;;;;;;;;;8402662;28;20091;-89
2023/06/18 20:47:41;;;;;;;60.50;21.40;;;;;;;;;;8400286;28;20041;-90
2023/06/18 20:51:45;;;;;;;14.70;10.40;;;;;;;;;;8400332;28;20072;-90
2023/06/18 20:55:50;;;;;;;19.13;11.27;;;;;;;;;;8400079;28;20045;-90
2023/06/18 20:59:54;;;;;;;21.23;13.10;;;;;;;;;;8400495;28;20099;-90
2023/06/18 21:04:01;;;;;;;20.42;13.07;;;;;;;;;;8383500;28;20075;-90
2023/06/18 21:08:06;;;;;;;16.70;12.00;;;;;;;;;;8400984;28;20048;-90
2023/06/18 21:12:10;;;;;;;19.23;12.20;;;;;;;;;;8384109;28;20048;-91
2023/06/18 21:16:16;;;;;;;16.98;11.60;;;;;;;;;;8399925;28;20091;-91
2023/06/18 21:20:22;;;;;;;16.85;12.02;;;;;;;;;;8400564;28;20079;-91
2023/06/18 21:24:27;;;;;;;14.48;10.77;;;;;;;;;;8400350;28;20052;-90
2023/06/18 21:28:31;;;;;;;17.70;13.10;;;;;;;;;;8403038;28;20048;-90
2023/06/18 21:32:36;;;;;;;19.63;13.13;;;;;;;;;;8406237;28;20070;-90
2023/06/18 21:36:42;;;;;;;18.33;12.13;;;;;;;;;;8405860;28;20052;-91
2023/06/18 21:40:46;;;;;;;18.02;12.43;;;;;;;;;;8404078;28;20056;-91
2023/06/18 21:45:00;;;;;;;15.57;11.57;;;;;;;;;;8405585;28;20099;-90
2023/06/18 21:49:04;;;;;;;15.90;11.60;;;;;;;;;;8404995;28;20048;-90
2023/06/18 21:53:10;;;;;;;16.70;12.50;;;;;;;;;;8404552;28;20063;-90
2023/06/18 21:57:15;;;;;;;18.27;11.93;;;;;;;;;;8406337;28;20068;-91
2023/06/18 22:01:20;;;;;;;17.92;11.35;;;;;;;;;;8407161;28;20099;-91
2023/06/18 22:05:24;;;;;;;17.60;12.63;;;;;;;;;;8407433;28;20044;-91
2023/06/18 22:09:30;;;;;;;16.55;12.07;;;;;;;;;;8405543;28;20049;-90
2023/06/18 22:13:34;;;;;;;17.80;12.73;;;;;;;;;;8406251;28;20075;-91
2023/06/18 22:17:39;;;;;;;18.00;12.75;;;;;;;;;;8407987;28;20048;-90
2023/06/18 22:21:43;;;;;;;18.67;13.02;;;;;;;;;;8405514;28;20052;-90
2023/06/18 22:25:49;;;;;;;17.13;11.52;;;;;;;;;;8405962;28;20052;-90
2023/06/18 22:29:53;;;;;;;18.10;11.88;;;;;;;;;;8405182;28;20049;-90
2023/06/18 22:33:57;;;;;;;16.63;11.75;;;;;;;;;;8387009;28;20052;-90
2023/06/18 22:38:01;;;;;;;17.02;12.38;;;;;;;;;;8403970;28;20099;-89
2023/06/18 22:42:09;;;;;;;16.42;11.20;;;;;;;;;;8403039;28;20080;-91
2023/06/18 22:46:13;;;;;;;17.08;11.07;;;;;;;;;;8387288;28;20052;-90
2023/06/18 22:50:18;;;;;;;17.95;12.38;;;;;;;;;;8403737;28;20071;-90
2023/06/18 22:54:22;;;;;;;24.45;14.45;;;;;;;;;;8385231;28;20053;-90
2023/06/18 22:58:29;;;;;;;25.17;14.98;;;;;;;;;;8404291;28;20063;-91
2023/06/18 23:02:37;;;;;;;25.50;14.57;;;;;;;;;;8404976;28;20052;-93
2023/06/18 23:06:43;;;;;;;19.77;13.30;;;;;;;;;;8404189;28;20052;-90
2023/06/18 23:10:47;;;;;;;17.88;12.38;;;;;;;;;;8404270;28;20048;-90
2023/06/18 23:14:55;;;;;;;17.60;11.05;;;;;;;;;;8402403;28;20083;-90
2023/06/18 23:19:03;;;;;;;16.48;11.35;;;;;;;;;;8387331;28;20075;-90
2023/06/18 23:23:13;;;;;;;16.13;11.93;;;;;;;;;;8385387;28;20052;-90
2023/06/18 23:27:18;;;;;;;19.63;12.85;;;;;;;;;;8388607;28;20056;-91
2023/06/18 23:31:25;;;;;;;17.60;11.55;;;;;;;;;;8403248;28;20045;-92
2023/06/18 23:35:29;;;;;;;48.90;22.35;;;;;;;;;;8399551;28;20060;-92
2023/06/18 23:39:33;;;;;;;22.48;14.60;;;;;;;;;;8400041;28;20106;-90
2023/06/18 23:43:38;;;;;;;23.10;13.68;;;;;;;;;;8383415;28;20048;-90
2023/06/18 23:47:45;;;;;;;19.38;13.52;;;;;;;;;;8384751;28;20090;-90
2023/06/18 23:51:50;;;;;;;24.33;15.10;;;;;;;;;;8402105;28;20044;-91
2023/06/18 23:55:54;;;;;;;23.38;14.15;;;;;;;;;;8401977;28;20105;-91
2023/06/18 23:59:58;;;;;;;35.20;17.52;;;;;;;;;;8402214;28;20044;-91
